Impacts TAF Board
For situational awareness. Not to be used for flight planning purposes.
IDs:

KFSM - Fort Smith Rgnl, AR, US

Issued at 1721 UTC 21 May 2022
Updated at 2309 UTC 21 May 2022
Potential Impact None Slight Moderate High
Time2253Z 22/00Z 22/01Z 22/02Z 22/03Z 22/04Z 22/05Z 22/06Z 22/07Z 22/08Z 22/09Z 22/10Z 22/11Z 22/12Z>>
Type OBS PRVL
  [TEMP]  
PRVL
  [TEMP]  
PRVL PRVL PRVL PRVL PRVL PRVL PRVL PRVL PRVL PRVL PRVL
VIS 10 >6
  [>6]  
>6
  [>6]  
>6 >6 >6 >6 >6 >6 >6 >6 >6 >6 >6
CIG 18 15
  [7]  
15
  [7]  
15 15 15 15 15 15 15 50 50 50 50
Cover OVC BKN
  [BKN]  
BKN
  [BKN]  
BKN BKN BKN BKN BKN BKN BKN BKN BKN BKN BKN
FltCat MVFR MVFR
  [IFR]  
MVFR
  [IFR]  
MVFR MVFR MVFR MVFR MVFR MVFR MVFR VFR VFR VFR VFR
WX -- VCSH
  [--]  
VCSH
  [--]  
-- -- -- -- -- -- -- -- -- -- --
WDir 310 320
[320]
320
[320]
30 30 30 30 30 30 30 360 360 360 360
WSpd 9 10
  [10]  
10
  [10]  
12 12 12 12 12 12 12 5 5 5 5
WGst 17 --
  [--]  
--
  [--]  
-- -- -- -- -- -- -- -- -- -- --
WSHgt -- --
[--]
--
[--]
-- -- -- -- -- -- -- -- -- -- --
WSDir -- --
[--]
--
[--]
-- -- -- -- -- -- -- -- -- -- --
WSSpd -- --
[--]
--
[--]
-- -- -- -- -- -- -- -- -- -- --
R01/19
XWnd 9 9 9 -2 -2 -2 -2 -2 -2 -2 2 2 2 2
XGst 16 0 0 -- -- -- -- -- -- -- -- -- -- --
HWnd 3 5 5 12 12 12 12 12 12 12 5 5 5 5
HGst 6 0 0 -- -- -- -- -- -- -- -- -- -- --
R07/25
XWnd 7 9 9 9 9 9 9 9 9 9 5 5 5 5
XGst 13 0 0 -- -- -- -- -- -- -- -- -- -- --
HWnd -6 -5 -5 8 8 8 8 8 8 8 1 1 1 1
HGst -11 0 0 -- -- -- -- -- -- -- -- -- -- --
Raw TAF
KFSM 211721Z 2118/2218 04007KT P6SM VCSH BKN040
  TEMPO 2118/2122 3SM -TSRA BKN015CB
  FM212200 32010KT P6SM VCSH BKN015
  TEMPO 2122/2202 BKN007
  FM220200 03012KT P6SM BKN015
  FM220900 36005KT P6SM BKN050


Raw METAR
KFSM 212253Z 31009G17KT 10SM OVC018 17/13 A2998 RMK AO2 SLP149 T01720133
KFSM 212248Z 30010G16KT 10SM BKN017 OVC021 18/13 A2998 RMK AO2
KFSM 212207Z 31012G21KT 10SM OVC014 18/14 A2996 RMK AO2 T01780144
KFSM 212153Z 32014G20KT 10SM OVC015 19/14 A2996 RMK AO2 WSHFT 2054 LTG DSNT SE SLP140 T01890144
KFSM 212114Z 33018G24KT 10SM OVC015 21/16 A2992 RMK AO2 WSHFT 2054 T02060161
KFSM 212053Z 27011G21KT 10SM OVC016 23/19 A2991 RMK AO2 SLP122 T02330189 53008

METAR Board
Radar Display
Forecast Discussion
For situational awareness. Not to be used for flight planning purposes.